Terminal Aerodrome Forecast
Issued by NWS Jackson, MS

Home | Current Version | Previous Version | Text Only | Print | Product List | Glossary On
Versions: 1 2 3 4 5 6 7 8 9 10 11 12
000
FTUS44 KJAN 160616 RRA
TAFHBG
TAF
KHBG 160616Z 1606/1706 VRB03KT P6SM SKC
     FM161100 36010KT P6SM SCT025 BKN050
     FM161500 35006KT P6SM BKN012
     FM161900 35011KT 6SM -RASN OVC015
     FM162100 35013KT 4SM -SN BR OVC015=

USA.gov is the U.S. government's official web portal to all federal, state and local government web resources and services.